createdAt,value
2023-01-29T00:02:05.550Z,17.92
2023-01-29T00:04:32.454Z,15.15
2023-01-29T00:06:59.488Z,14.10
2023-01-29T00:09:26.353Z,15.02
2023-01-29T00:11:53.043Z,13.98
2023-01-29T00:14:20.217Z,13.82
2023-01-29T00:19:13.645Z,13.15
2023-01-29T00:21:40.339Z,13.35
2023-01-29T00:24:07.236Z,14.82
2023-01-29T00:26:34.064Z,16.38
2023-01-29T00:29:02.023Z,15.43
2023-01-29T00:31:29.291Z,16.23
2023-01-29T00:33:56.362Z,15.38
2023-01-29T00:36:23.499Z,15.60
2023-01-29T00:39:02.490Z,16.00
2023-01-29T00:41:50.073Z,15.93
2023-01-29T00:44:35.533Z,15.13
2023-01-29T00:47:03.282Z,16.00
2023-01-29T00:49:33.057Z,17.25
2023-01-29T00:52:18.148Z,17.70
2023-01-29T00:54:44.813Z,16.95
2023-01-29T00:57:11.616Z,15.30
2023-01-29T00:59:38.371Z,17.25
2023-01-29T01:02:23.816Z,15.68
2023-01-29T01:04:50.587Z,13.30
2023-01-29T01:07:17.320Z,11.73
2023-01-29T01:10:02.399Z,10.40
2023-01-29T01:12:29.399Z,11.25
2023-01-29T01:14:56.057Z,10.18
2023-01-29T01:17:23.197Z,9.93
2023-01-29T01:19:50.007Z,9.57
2023-01-29T01:22:16.972Z,11.98
2023-01-29T01:24:44.189Z,13.95
2023-01-29T01:27:10.869Z,9.60
2023-01-29T01:29:38.047Z,10.85
2023-01-29T01:32:05.903Z,9.98
2023-01-29T01:34:32.688Z,11.77
2023-01-29T01:36:59.397Z,14.93
2023-01-29T01:39:26.124Z,14.75
2023-01-29T01:41:56.275Z,15.15
2023-01-29T01:44:51.328Z,15.00
2023-01-29T01:47:29.514Z,13.35
2023-01-29T01:50:02.614Z,14.30
2023-01-29T01:52:31.723Z,10.48
2023-01-29T01:54:59.645Z,7.65
2023-01-29T01:57:28.915Z,8.40
2023-01-29T02:00:01.202Z,7.82
2023-01-29T02:02:46.887Z,8.32
2023-01-29T02:05:32.997Z,8.00
2023-01-29T02:08:18.403Z,8.52
2023-01-29T02:10:47.410Z,8.80
2023-01-29T02:13:18.701Z,8.45
2023-01-29T02:15:48.699Z,8.00
2023-01-29T02:18:17.774Z,8.40
2023-01-29T02:21:15.096Z,7.93
2023-01-29T02:24:45.618Z,7.95
2023-01-29T02:27:33.685Z,8.10
2023-01-29T02:30:06.455Z,7.57
2023-01-29T02:32:59.290Z,7.03
2023-01-29T02:35:46.557Z,7.78
2023-01-29T02:38:45.733Z,7.45
2023-01-29T02:41:23.581Z,8.00
2023-01-29T02:44:00.969Z,8.00
2023-01-29T02:46:40.976Z,6.90
2023-01-29T02:49:45.443Z,7.78
2023-01-29T02:52:34.662Z,7.68
2023-01-29T02:55:12.130Z,9.13
2023-01-29T02:57:42.993Z,7.78
2023-01-29T03:00:27.466Z,7.13
2023-01-29T03:03:15.998Z,7.97
2023-01-29T03:05:59.883Z,7.65
2023-01-29T03:08:43.033Z,7.55
2023-01-29T03:11:15.719Z,8.70
2023-01-29T03:13:49.014Z,8.93
2023-01-29T03:16:19.205Z,8.52
2023-01-29T03:18:53.736Z,8.45
2023-01-29T03:21:53.751Z,9.88
2023-01-29T03:25:08.993Z,7.18
2023-01-29T03:28:01.668Z,6.85
2023-01-29T03:30:56.627Z,6.72
2023-01-29T03:33:43.653Z,7.15
2023-01-29T03:36:16.638Z,6.80
2023-01-29T03:38:44.551Z,7.40
2023-01-29T03:41:28.740Z,7.47
2023-01-29T03:44:02.554Z,6.85
2023-01-29T03:46:43.270Z,6.93
2023-01-29T03:49:10.209Z,7.45
2023-01-29T03:52:06.107Z,6.80
2023-01-29T03:54:53.804Z,6.80
2023-01-29T03:57:32.994Z,6.22
2023-01-29T04:00:16.248Z,6.25
2023-01-29T04:02:47.912Z,6.38
2023-01-29T04:05:22.980Z,6.10
2023-01-29T04:08:16.410Z,6.13
2023-01-29T04:10:46.126Z,5.78
2023-01-29T04:13:14.931Z,5.85
2023-01-29T04:15:55.928Z,6.50
2023-01-29T04:18:40.091Z,6.53
2023-01-29T04:21:09.004Z,6.68
2023-01-29T04:23:36.009Z,6.97
2023-01-29T04:26:21.691Z,6.97
2023-01-29T04:28:48.910Z,6.15
2023-01-29T04:31:16.448Z,6.70
2023-01-29T04:33:55.415Z,7.03
2023-01-29T04:36:36.493Z,7.07
2023-01-29T04:39:18.018Z,7.80
2023-01-29T04:42:05.861Z,9.52
2023-01-29T04:44:51.154Z,6.55
2023-01-29T04:47:41.791Z,8.63
2023-01-29T04:50:26.806Z,8.90
2023-01-29T04:53:00.854Z,8.70
2023-01-29T04:55:45.499Z,8.18
2023-01-29T04:58:34.018Z,7.57
2023-01-29T05:03:30.355Z,8.68
2023-01-29T05:06:00.502Z,10.85
2023-01-29T05:08:29.481Z,10.27
2023-01-29T05:10:58.759Z,8.85
2023-01-29T05:13:29.429Z,10.02
2023-01-29T05:16:08.577Z,8.80
2023-01-29T05:18:36.064Z,10.35
2023-01-29T05:21:06.309Z,11.07
2023-01-29T05:23:33.310Z,12.10
2023-01-29T05:26:00.123Z,11.85
2023-01-29T05:28:26.928Z,13.40
2023-01-29T05:30:56.745Z,11.43
2023-01-29T05:33:24.845Z,9.75
2023-01-29T05:35:51.882Z,9.32
2023-01-29T05:38:19.366Z,7.65
2023-01-29T05:40:46.297Z,5.82
2023-01-29T05:43:21.643Z,7.07
2023-01-29T05:45:59.309Z,6.85
2023-01-29T05:51:00.566Z,7.38
2023-01-29T05:53:29.169Z,8.23
2023-01-29T05:55:57.228Z,8.15
2023-01-29T05:58:24.587Z,8.52
2023-01-29T06:03:17.887Z,9.00
2023-01-29T06:05:44.654Z,8.88
2023-01-29T06:08:11.367Z,8.88
2023-01-29T06:10:38.023Z,9.02
2023-01-29T06:13:04.696Z,8.13
2023-01-29T06:15:31.391Z,6.35
2023-01-29T06:17:58.066Z,9.45
2023-01-29T06:20:25.208Z,12.90
2023-01-29T06:22:51.852Z,10.50
2023-01-29T06:25:18.604Z,9.70
2023-01-29T06:27:45.337Z,9.40
2023-01-29T06:30:12.449Z,8.98
2023-01-29T06:32:39.220Z,12.13
2023-01-29T06:35:06.323Z,11.43
2023-01-29T06:37:32.985Z,10.70
2023-01-29T06:39:59.699Z,14.77
2023-01-29T06:42:28.008Z,10.80
2023-01-29T06:44:58.058Z,9.77
2023-01-29T06:47:24.911Z,9.18
2023-01-29T06:49:52.122Z,12.15
2023-01-29T06:54:45.561Z,7.97
2023-01-29T06:57:12.205Z,10.40
2023-01-29T06:59:38.911Z,5.93
2023-01-29T07:02:05.729Z,8.27
2023-01-29T07:04:32.451Z,9.55
2023-01-29T07:07:01.878Z,9.07
2023-01-29T07:09:28.599Z,6.70
2023-01-29T07:11:55.241Z,7.47
2023-01-29T07:14:21.966Z,6.53
2023-01-29T07:16:48.677Z,6.97
2023-01-29T07:19:15.438Z,8.43
2023-01-29T07:21:42.074Z,10.27
2023-01-29T07:24:09.152Z,11.52
2023-01-29T07:26:35.812Z,7.07
2023-01-29T07:29:04.400Z,9.73
2023-01-29T07:31:31.245Z,8.00
2023-01-29T07:33:58.051Z,9.02
2023-01-29T07:36:24.904Z,7.47
2023-01-29T07:38:51.716Z,7.53
2023-01-29T07:41:18.626Z,8.77
2023-01-29T07:43:46.765Z,12.73
2023-01-29T07:46:13.603Z,10.57
2023-01-29T07:48:40.282Z,11.13
2023-01-29T07:51:07.285Z,12.65
2023-01-29T07:53:34.109Z,11.23
2023-01-29T07:56:00.777Z,11.02
2023-01-29T07:58:27.460Z,10.85
2023-01-29T08:00:54.215Z,9.18
2023-01-29T08:03:20.977Z,8.73
2023-01-29T08:05:48.193Z,8.55
2023-01-29T08:10:42.180Z,8.77
2023-01-29T08:18:22.860Z,8.98
2023-01-29T08:20:49.564Z,9.77
2023-01-29T08:23:53.726Z,8.80
2023-01-29T08:26:20.593Z,9.80
2023-01-29T08:28:47.249Z,8.80
2023-01-29T08:31:20.469Z,8.25
2023-01-29T08:33:47.348Z,10.38
2023-01-29T08:36:14.462Z,10.05
2023-01-29T08:38:41.418Z,10.07
2023-01-29T08:41:08.220Z,10.73
2023-01-29T08:43:36.931Z,9.65
2023-01-29T08:46:05.410Z,8.88
2023-01-29T08:48:32.352Z,10.57
2023-01-29T08:53:26.891Z,10.77
2023-01-29T08:55:53.834Z,7.63
2023-01-29T08:58:20.679Z,10.90
2023-01-29T09:00:47.510Z,12.38
2023-01-29T09:03:14.414Z,11.85
2023-01-29T09:05:41.396Z,12.75
2023-01-29T09:08:09.648Z,13.38
2023-01-29T09:10:36.447Z,12.15
2023-01-29T09:13:03.280Z,11.35
2023-01-29T09:15:30.161Z,9.50
2023-01-29T09:17:56.865Z,11.00
2023-01-29T09:20:23.615Z,9.55
2023-01-29T09:22:53.454Z,11.48
2023-01-29T09:25:20.454Z,9.27
2023-01-29T09:27:47.127Z,10.18
2023-01-29T09:30:14.266Z,9.40
2023-01-29T09:32:53.023Z,9.60
2023-01-29T09:35:21.663Z,9.50
2023-01-29T09:37:49.291Z,9.45
2023-01-29T09:40:30.569Z,9.55
2023-01-29T09:43:23.548Z,8.52
2023-01-29T09:45:54.576Z,9.68
2023-01-29T09:48:25.200Z,9.25
2023-01-29T09:50:55.165Z,9.15
2023-01-29T09:53:32.513Z,11.15
2023-01-29T09:56:03.907Z,9.25
2023-01-29T09:58:37.113Z,9.52
2023-01-29T10:01:07.180Z,9.73
2023-01-29T10:04:11.205Z,9.93
2023-01-29T10:07:05.181Z,13.63
2023-01-29T10:09:40.688Z,13.63
2023-01-29T10:12:31.711Z,11.30
2023-01-29T10:15:17.464Z,10.70
2023-01-29T10:17:50.588Z,11.10
2023-01-29T10:20:35.636Z,11.65
2023-01-29T10:23:25.146Z,10.38
2023-01-29T10:25:53.331Z,9.75
2023-01-29T10:28:26.938Z,10.10
2023-01-29T10:31:04.054Z,9.98
2023-01-29T10:33:49.514Z,9.60
2023-01-29T10:36:34.158Z,9.65
2023-01-29T10:39:00.988Z,10.05
2023-01-29T10:41:54.799Z,9.70
2023-01-29T10:44:47.534Z,8.60
2023-01-29T10:47:27.555Z,9.32
2023-01-29T10:50:17.444Z,8.40
2023-01-29T10:53:07.055Z,10.07
2023-01-29T10:55:51.508Z,9.98
2023-01-29T10:58:41.772Z,9.20
2023-01-29T11:01:10.640Z,9.75
2023-01-29T11:03:37.802Z,10.27
2023-01-29T11:06:12.844Z,9.80
2023-01-29T11:08:48.238Z,10.00
2023-01-29T11:11:17.410Z,9.07
2023-01-29T11:13:53.107Z,10.05
2023-01-29T11:16:19.978Z,10.88
2023-01-29T11:18:52.426Z,10.38
2023-01-29T11:21:19.154Z,10.45
2023-01-29T11:23:46.500Z,9.18
2023-01-29T11:28:46.423Z,10.03
2023-01-29T11:31:29.026Z,10.00
2023-01-29T11:34:06.481Z,10.23
2023-01-29T11:36:38.316Z,9.85
2023-01-29T11:39:22.670Z,9.73
2023-01-29T11:42:03.674Z,7.85
2023-01-29T11:44:39.194Z,9.30
2023-01-29T11:47:16.123Z,10.07
2023-01-29T11:50:04.269Z,9.02
2023-01-29T11:52:43.380Z,9.45
2023-01-29T11:55:21.402Z,9.65
2023-01-29T12:00:40.339Z,8.85
2023-01-29T12:03:06.937Z,9.05
2023-01-29T12:05:34.320Z,9.32
2023-01-29T12:08:02.404Z,9.38
2023-01-29T12:10:34.034Z,10.40
2023-01-29T12:13:09.731Z,10.00
2023-01-29T12:15:41.065Z,9.68
2023-01-29T12:18:27.214Z,10.35
2023-01-29T12:21:02.413Z,9.93
2023-01-29T12:23:57.765Z,9.82
2023-01-29T12:26:35.965Z,9.60
2023-01-29T12:29:14.288Z,10.90
2023-01-29T12:31:48.973Z,9.80
2023-01-29T12:34:46.195Z,9.05
2023-01-29T12:37:25.757Z,9.43
2023-01-29T12:39:52.631Z,9.82
2023-01-29T12:42:24.354Z,9.75
2023-01-29T12:44:57.193Z,11.02
2023-01-29T12:47:33.413Z,9.65
2023-01-29T12:50:27.522Z,11.13
2023-01-29T12:53:00.066Z,9.85
2023-01-29T12:55:59.143Z,9.90
2023-01-29T12:58:35.082Z,9.73
2023-01-29T13:01:12.264Z,9.45
2023-01-29T13:03:55.441Z,10.13
2023-01-29T13:06:51.154Z,11.60
2023-01-29T13:09:23.261Z,9.95
2023-01-29T13:12:09.141Z,10.43
2023-01-29T13:14:51.822Z,11.32
2023-01-29T13:17:21.932Z,10.20
2023-01-29T13:19:52.386Z,10.45
2023-01-29T13:22:28.632Z,9.15
2023-01-29T13:25:04.520Z,10.85
2023-01-29T13:27:37.673Z,10.20
2023-01-29T13:30:05.208Z,11.35
2023-01-29T13:32:35.651Z,10.35
2023-01-29T13:35:14.151Z,11.23
2023-01-29T13:37:53.775Z,10.98
2023-01-29T13:40:30.027Z,10.65
2023-01-29T13:43:00.222Z,11.18
2023-01-29T13:45:44.462Z,11.27
2023-01-29T13:48:32.435Z,11.18
2023-01-29T13:51:03.823Z,10.57
2023-01-29T13:53:41.029Z,10.75
2023-01-29T13:56:30.027Z,10.45
2023-01-29T13:58:57.758Z,11.23
2023-01-29T14:01:46.413Z,11.63
2023-01-29T14:06:49.238Z,11.10
2023-01-29T14:09:38.079Z,10.73
2023-01-29T14:12:22.856Z,11.27
2023-01-29T14:14:51.182Z,12.10
2023-01-29T14:17:19.998Z,10.52
2023-01-29T14:19:51.743Z,10.30
2023-01-29T14:22:24.563Z,10.80
2023-01-29T14:25:42.537Z,11.48
2023-01-29T14:28:19.407Z,11.80
2023-01-29T14:30:49.112Z,11.00
2023-01-29T14:33:43.446Z,11.70
2023-01-29T14:36:13.773Z,11.10
2023-01-29T14:38:47.107Z,12.00
2023-01-29T14:41:33.064Z,11.43
2023-01-29T14:44:37.514Z,10.73
2023-01-29T14:47:04.847Z,10.02
2023-01-29T14:52:18.675Z,11.05
2023-01-29T14:54:47.341Z,11.02
2023-01-29T14:57:17.021Z,11.60
2023-01-29T14:59:50.959Z,11.38
2023-01-29T15:02:22.547Z,11.57
2023-01-29T15:04:52.712Z,11.40
2023-01-29T15:07:25.449Z,12.23
2023-01-29T15:10:22.695Z,10.75
2023-01-29T15:13:01.834Z,7.70
2023-01-29T15:15:42.233Z,11.45
2023-01-29T15:18:26.759Z,11.70
2023-01-29T15:21:18.101Z,13.25
2023-01-29T15:23:46.617Z,13.25
2023-01-29T15:26:27.003Z,12.40
2023-01-29T15:29:04.112Z,12.80
2023-01-29T15:31:32.013Z,12.93
2023-01-29T15:34:03.036Z,11.75
2023-01-29T15:36:31.518Z,11.38
2023-01-29T15:39:13.243Z,10.65
2023-01-29T15:41:40.124Z,12.02
2023-01-29T15:44:19.077Z,12.38
2023-01-29T15:46:52.863Z,12.55
2023-01-29T15:49:30.393Z,10.85
2023-01-29T15:52:00.841Z,11.45
2023-01-29T15:54:31.351Z,12.45
2023-01-29T15:56:59.849Z,11.52
2023-01-29T15:59:35.034Z,11.77
2023-01-29T16:02:26.817Z,11.02
2023-01-29T16:04:54.036Z,12.50
2023-01-29T16:07:21.060Z,12.70
2023-01-29T16:09:48.683Z,12.45
2023-01-29T16:12:15.728Z,12.30
2023-01-29T16:14:43.543Z,13.15
2023-01-29T16:17:21.707Z,12.77
2023-01-29T16:19:59.309Z,12.93
2023-01-29T16:22:37.692Z,12.13
2023-01-29T16:25:14.757Z,12.35
2023-01-29T16:27:44.334Z,9.03
2023-01-29T16:30:16.295Z,12.88
2023-01-29T16:32:43.369Z,12.75
2023-01-29T16:35:16.624Z,13.98
2023-01-29T16:37:48.495Z,14.00
2023-01-29T16:40:33.662Z,12.55
2023-01-29T16:43:37.476Z,13.00
2023-01-29T16:46:26.043Z,12.10
2023-01-29T16:48:53.829Z,12.43
2023-01-29T16:51:36.272Z,13.43
2023-01-29T16:54:18.332Z,13.70
2023-01-29T16:56:52.977Z,12.85
2023-01-29T16:59:54.163Z,14.27
2023-01-29T17:02:33.357Z,13.43
2023-01-29T17:05:07.066Z,15.25
2023-01-29T17:07:34.689Z,12.77
2023-01-29T17:10:04.401Z,14.45
2023-01-29T17:12:32.387Z,13.85
2023-01-29T17:15:00.467Z,14.18
2023-01-29T17:17:36.177Z,15.13
2023-01-29T17:20:14.195Z,14.73
2023-01-29T17:22:41.202Z,15.68
2023-01-29T17:25:12.816Z,15.50
2023-01-29T17:27:42.175Z,15.20
2023-01-29T17:30:17.267Z,16.38
2023-01-29T17:32:45.189Z,16.20
2023-01-29T17:35:15.667Z,15.20
2023-01-29T17:37:42.872Z,16.92
2023-01-29T17:40:47.821Z,14.98
2023-01-29T17:43:14.606Z,15.65
2023-01-29T17:45:41.733Z,16.15
2023-01-29T17:48:26.279Z,16.08
2023-01-29T17:50:55.507Z,14.77
2023-01-29T17:53:26.505Z,16.52
2023-01-29T17:55:57.145Z,16.95
2023-01-29T17:58:27.063Z,15.90
2023-01-29T18:00:56.803Z,16.08
2023-01-29T18:03:23.587Z,17.50
2023-01-29T18:05:50.601Z,16.77
2023-01-29T18:08:32.920Z,20.00
2023-01-29T18:11:00.333Z,40.75
2023-01-29T18:13:27.884Z,46.15
2023-01-29T18:15:55.016Z,30.65
2023-01-29T18:18:23.834Z,23.17
2023-01-29T18:20:50.971Z,17.67
2023-01-29T18:23:17.837Z,16.35
2023-01-29T18:25:44.937Z,20.65
2023-01-29T18:28:17.085Z,20.77
2023-01-29T18:30:47.188Z,30.05
2023-01-29T18:33:15.911Z,29.02
2023-01-29T18:35:48.290Z,17.05
2023-01-29T18:38:16.065Z,17.52
2023-01-29T18:40:43.265Z,22.90
2023-01-29T18:45:36.683Z,17.70
2023-01-29T18:48:03.551Z,17.65
2023-01-29T18:50:30.567Z,19.80
2023-01-29T18:52:57.473Z,16.60
2023-01-29T18:55:26.453Z,16.42
2023-01-29T18:58:29.196Z,14.20
2023-01-29T19:00:40.949Z,12.03
2023-01-29T19:03:07.756Z,15.73
2023-01-29T19:05:34.625Z,16.92
2023-01-29T19:08:01.856Z,16.85
2023-01-29T19:10:28.764Z,17.48
2023-01-29T19:12:55.584Z,15.45
2023-01-29T19:15:22.961Z,15.20
2023-01-29T19:17:53.450Z,14.85
2023-01-29T19:20:20.381Z,13.27
2023-01-29T19:22:47.440Z,12.00
2023-01-29T19:25:14.805Z,12.45
2023-01-29T19:27:41.606Z,12.90
2023-01-29T19:30:12.786Z,12.93
2023-01-29T19:32:40.477Z,14.55
2023-01-29T19:35:07.366Z,13.60
2023-01-29T19:37:34.080Z,14.02
2023-01-29T19:40:00.817Z,15.20
2023-01-29T19:42:28.112Z,14.40
2023-01-29T19:44:54.837Z,14.50
2023-01-29T19:47:21.639Z,9.52
2023-01-29T19:49:48.587Z,12.98
2023-01-29T19:52:41.470Z,15.63
2023-01-29T19:55:17.311Z,15.10
2023-01-29T19:57:44.348Z,15.70
2023-01-29T20:00:12.178Z,15.55
2023-01-29T20:02:39.008Z,13.60
2023-01-29T20:05:07.899Z,18.42
2023-01-29T20:07:36.041Z,17.85
2023-01-29T20:10:03.463Z,16.75
2023-01-29T20:12:30.306Z,12.95
2023-01-29T20:14:57.141Z,12.98
2023-01-29T20:17:23.975Z,13.77
2023-01-29T20:19:50.824Z,12.90
2023-01-29T20:22:17.769Z,12.50
2023-01-29T20:24:44.767Z,10.68
2023-01-29T20:27:12.609Z,11.75
2023-01-29T20:29:39.482Z,14.15
2023-01-29T20:32:08.698Z,16.25
2023-01-29T20:34:36.492Z,19.38
2023-01-29T20:37:03.315Z,20.60
2023-01-29T20:39:30.303Z,18.95
2023-01-29T20:41:57.307Z,21.88
2023-01-29T20:44:24.955Z,19.85
2023-01-29T20:46:52.501Z,22.77
2023-01-29T20:49:19.403Z,19.45
2023-01-29T20:51:46.221Z,19.02
2023-01-29T20:54:13.010Z,18.05
2023-01-29T20:56:44.681Z,17.85
2023-01-29T20:59:13.079Z,18.40
2023-01-29T21:01:39.775Z,15.18
2023-01-29T21:04:06.476Z,12.50
2023-01-29T21:06:33.356Z,8.95
2023-01-29T21:09:00.041Z,11.10
2023-01-29T21:11:26.767Z,12.43
2023-01-29T21:13:57.487Z,12.75
2023-01-29T21:16:26.164Z,13.02
2023-01-29T21:18:58.448Z,13.63
2023-01-29T21:21:26.565Z,14.52
2023-01-29T21:23:53.501Z,15.65
2023-01-29T21:26:20.352Z,15.48
2023-01-29T21:28:47.077Z,13.30
2023-01-29T21:31:17.659Z,13.05
2023-01-29T21:33:44.504Z,16.38
2023-01-29T21:36:11.738Z,16.73
2023-01-29T21:41:08.853Z,16.80
2023-01-29T21:43:36.322Z,17.80
2023-01-29T21:46:05.064Z,17.65
2023-01-29T21:48:32.096Z,16.13
2023-01-29T21:50:58.854Z,15.90
2023-01-29T21:53:25.579Z,15.95
2023-01-29T21:55:52.244Z,16.33
2023-01-29T21:58:20.743Z,12.75
2023-01-29T22:00:48.734Z,17.00
2023-01-29T22:03:15.613Z,14.70
2023-01-29T22:05:42.418Z,14.20
2023-01-29T22:08:09.853Z,15.20
2023-01-29T22:10:36.740Z,14.75
2023-01-29T22:13:03.962Z,16.08
2023-01-29T22:15:30.761Z,17.60
2023-01-29T22:17:57.480Z,15.95
2023-01-29T22:20:29.950Z,15.10
2023-01-29T22:22:58.745Z,15.77
2023-01-29T22:25:25.551Z,16.73
2023-01-29T22:27:52.411Z,15.60
2023-01-29T22:30:19.463Z,13.88
2023-01-29T22:35:12.956Z,14.80
2023-01-29T22:37:39.667Z,14.95
2023-01-29T22:40:07.004Z,14.25
2023-01-29T22:42:33.705Z,12.13
2023-01-29T22:45:00.394Z,11.70
2023-01-29T22:47:27.065Z,11.65
2023-01-29T22:49:53.740Z,11.07
2023-01-29T22:52:23.595Z,12.25
2023-01-29T22:54:51.481Z,14.60
2023-01-29T22:57:19.258Z,14.35
2023-01-29T22:59:46.056Z,14.70
2023-01-29T23:02:12.760Z,13.45
2023-01-29T23:04:39.500Z,12.25
2023-01-29T23:07:06.191Z,11.43
2023-01-29T23:09:32.912Z,12.50
2023-01-29T23:11:59.639Z,12.52
2023-01-29T23:14:26.335Z,12.75
2023-01-29T23:16:53.026Z,12.70
2023-01-29T23:19:19.759Z,12.90
2023-01-29T23:21:46.551Z,12.63
2023-01-29T23:24:13.432Z,10.88
2023-01-29T23:26:58.992Z,9.75
2023-01-29T23:29:26.237Z,9.25
2023-01-29T23:34:20.323Z,7.32
2023-01-29T23:36:47.274Z,7.82
2023-01-29T23:39:14.318Z,6.90
2023-01-29T23:41:41.043Z,6.70
2023-01-29T23:44:07.837Z,7.78
2023-01-29T23:46:34.623Z,7.40
2023-01-29T23:49:01.827Z,7.68
2023-01-29T23:53:55.255Z,6.40
2023-01-29T23:56:22.084Z,8.57
2023-01-29T23:58:53.032Z,7.75
